Arca — PDHT — position and weather

sailwx.info

Track history (hours):
 
Tides and Currents Weather Stations Pressure Air Temp Water Temp Dewpoint Dewpoint Depression Visibility Wind Speed Wind Dir Waves Ship Positions

Oceanographic research ship Arca (Netherlands)

Detailed information on ship capabilities available from University of Delaware's Ocean Information Center.

Last reported at 2015-May-22 18:31 UTC. Time now 2015-May-22 19:05 UTC.
Position N 52°06' E 004°16'.

Length 83 m; draft 4.8 m.

Type: Law enforcement. MMSI: 244454000.

Date/timePositionNaut miles runAvg speedWind from/ knotsBaromVisibWave heightAir tempDewpointWater temp
2015-May-22 18:31N 52°06' E 004°16'0 0.0
2015-May-22 17:31N 52°06' E 004°16'0 0.0
2015-May-22 16:28N 52°06' E 004°16'0 0.0
2015-May-22 15:10N 52°06' E 004°16'0 0.0
2015-May-22 14:31N 52°06' E 004°16'0 0.0
2015-May-22 13:31N 52°06' E 004°16'0 0.0
2015-May-22 12:31N 52°06' E 004°16'0 0.0
2015-May-22 11:31N 52°06' E 004°16'0 0.0
2015-May-22 10:31N 52°06' E 004°16'0 0.0
2015-May-22 09:31N 52°06' E 004°16'0 0.0
2015-May-22 08:28N 52°06' E 004°16'0 0.0
2015-May-22 07:22N 52°06' E 004°16'0 0.0
2015-May-22 06:31N 52°06' E 004°16'1 1.4
2015-May-22 05:33N 52°07' E 004°15'3 3.0
2015-May-22 04:33N 52°10' E 004°17'3 2.9
2015-May-22 03:33N 52°13' E 004°18'5 5.3
2015-May-22 02:33N 52°18' E 004°20'8 7.6
2015-May-22 01:33N 52°25' E 004°24'1110.9
2015-May-22 00:33N 52°36' E 004°29'1312.7
2015-May-21 23:33N 52°48' E 004°27'1312.6
2015-May-21 22:33N 53°01' E 004°32'1211.7
2015-May-21 21:33N 53°11' E 004°41'19 9.7
2015-May-21 19:33N 53°29' E 004°33'18 5.7
2015-May-21 16:18N 53°47' E 004°44'6 6.1
2015-May-21 15:17N 53°45' E 004°54'7 9.6
2015-May-21 14:32N 53°52' E 004°58'4 3.1
2015-May-21 13:21N 53°55' E 004°54'3 1.6
2015-May-21 11:33N 53°54' E 004°59'2 1.7
2015-May-21 10:33N 53°54' E 005°02'5 5.2
2015-May-21 09:33N 53°55' E 005°10'4 3.6
2015-May-21 08:33N 53°58' E 005°06'7 6.8
2015-May-21 07:30N 54°01' E 004°55'0 0.0
2015-May-21 06:30N 54°01' E 004°55'0 0.1
2015-May-21 05:33N 54°01' E 004°55'6 5.5
2015-May-21 04:31N 54°06' E 004°51'  
2015-May-18 13:22N 52°41' E 003°54'1012.8
2015-May-18 12:33N 52°31' E 003°54'1010.4
2015-May-18 11:34N 52°21' E 004°00'1211.5
2015-May-18 10:33N 52°13' E 004°14'8 6.7
2015-May-18 09:25N 52°06' E 004°16'0 0.0
2015-May-18 08:31N 52°06' E 004°16'0 0.0
2015-May-18 07:31N 52°06' E 004°16'0 0.0
2015-May-18 06:31N 52°06' E 004°16'0 0.0
2015-May-18 05:25N 52°06' E 004°16'0 0.0
2015-May-18 04:31N 52°06' E 004°16'0 0.0
2015-May-18 03:31N 52°06' E 004°16'0 0.0
2015-May-18 02:28N 52°06' E 004°16'0 0.0
2015-May-18 01:31N 52°06' E 004°16'0 0.0
2015-May-18 00:28N 52°06' E 004°16'0 0.0
2015-May-17 23:31N 52°06' E 004°16'0 0.0
2015-May-17 22:31N 52°06' E 004°16'0 0.0
2015-May-17 21:31N 52°06' E 004°16'0 0.0
2015-May-17 20:31N 52°06' E 004°16'0 0.0
2015-May-17 19:28N 52°06' E 004°16'0 0.0
2015-May-17 18:28N 52°06' E 004°16'0 0.0
2015-May-17 17:28N 52°06' E 004°16'0 0.0
2015-May-17 16:25N 52°06' E 004°16'0 0.0
2015-May-17 15:31N 52°06' E 004°16'0 0.0
2015-May-17 14:28N 52°06' E 004°16'0 0.0
2015-May-17 13:31N 52°06' E 004°16'0 0.0
2015-May-17 12:31N 52°06' E 004°16'0 0.0
2015-May-17 11:28N 52°06' E 004°16'0 0.0
2015-May-17 10:28N 52°06' E 004°16'0 0.0
2015-May-17 09:31N 52°06' E 004°16'0 0.0
2015-May-17 08:19N 52°06' E 004°16'0 0.0
2015-May-17 07:31N 52°06' E 004°16'0 0.0
2015-May-17 06:28N 52°06' E 004°16'0 0.0
2015-May-17 05:31N 52°06' E 004°16'0 0.0
2015-May-17 04:31N 52°06' E 004°16'0 0.0
2015-May-17 03:22N 52°06' E 004°16'0 0.0
2015-May-17 02:31N 52°06' E 004°16'0 0.0
2015-May-17 01:28N 52°06' E 004°16'0 0.0
2015-May-17 00:31N 52°06' E 004°16'0 0.0
2015-May-16 23:28N 52°06' E 004°16'0 0.0
2015-May-16 22:22N 52°06' E 004°16'0 0.0
2015-May-16 21:28N 52°06' E 004°16'0 0.0
2015-May-16 20:31N 52°06' E 004°16'0 0.0
2015-May-16 19:26N 52°06' E 004°16'0 0.0
2015-May-16 18:31N 52°06' E 004°16'0 0.0
2015-May-16 17:27N 52°06' E 004°16'0 0.0
2015-May-16 16:28N 52°06' E 004°16'0 0.0
2015-May-16 15:28N 52°06' E 004°16'0 0.0
2015-May-16 14:31N 52°06' E 004°16'0 0.0
2015-May-16 13:31N 52°06' E 004°16'0 0.0
2015-May-16 12:28N 52°06' E 004°16'0 0.0
2015-May-16 11:31N 52°06' E 004°16'0 0.0
2015-May-16 10:31N 52°06' E 004°16'0 0.0
2015-May-16 09:31N 52°06' E 004°16'0 0.0
2015-May-16 08:25N 52°06' E 004°16'0 0.0
2015-May-16 07:31N 52°06' E 004°16'0 0.0
2015-May-16 06:28N 52°06' E 004°16'0 0.0
2015-May-16 05:31N 52°06' E 004°16'0 0.0
2015-May-16 04:28N 52°06' E 004°16'0 0.0
2015-May-16 03:33N 52°06' E 004°16'0 0.0
2015-May-16 02:31N 52°06' E 004°16'0 0.1
2015-May-16 01:31N 52°06' E 004°16'0 0.1
2015-May-16 00:31N 52°06' E 004°16'0 0.0
2015-May-15 23:28N 52°06' E 004°16'0 0.0
2015-May-15 22:31N 52°06' E 004°16'0 0.0
2015-May-15 21:31N 52°06' E 004°16'0 0.0
2015-May-15 20:31N 52°06' E 004°16'0 0.0
2015-May-15 19:31N 52°06' E 004°16'0 0.0
2015-May-15 18:31N 52°06' E 004°16'0 0.0
2015-May-15 17:25N 52°06' E 004°16'0 0.0
2015-May-15 16:22N 52°06' E 004°16'0 0.0
2015-May-15 15:31N 52°06' E 004°16'0 0.0
2015-May-15 14:27N 52°06' E 004°16'0 0.0
2015-May-15 13:25N 52°06' E 004°16'0 0.0
2015-May-15 12:32N 52°06' E 004°16'0 0.0
2015-May-15 11:31N 52°06' E 004°16'0 0.0
2015-May-15 10:31N 52°06' E 004°16'0 0.0
2015-May-15 09:31N 52°06' E 004°16'0 0.0
2015-May-15 08:10N 52°06' E 004°16'0 0.0
2015-May-15 07:31N 52°06' E 004°16'0 0.0
2015-May-15 06:13N 52°06' E 004°16'0 0.0
2015-May-15 05:31N 52°06' E 004°16'0 0.0
2015-May-15 04:32N 52°06' E 004°16'0 0.0
2015-May-15 02:16N 52°06' E 004°16'0 0.0
2015-May-15 01:31N 52°06' E 004°16'0 0.0
2015-May-15 00:28N 52°06' E 004°16'0 0.0
2015-May-14 23:31N 52°06' E 004°16'0 0.0
2015-May-14 22:31N 52°06' E 004°16'0 0.0
2015-May-14 21:28N 52°06' E 004°16'0 0.0
2015-May-14 20:31N 52°06' E 004°16'0 0.0
2015-May-14 19:31N 52°06' E 004°16'0 0.0
2015-May-14 18:28N 52°06' E 004°16'0 0.0
2015-May-14 17:13N 52°06' E 004°16'0 0.0
2015-May-14 16:25N 52°06' E 004°16'0 0.0
2015-May-14 15:31N 52°06' E 004°16'0 0.0
2015-May-14 14:28N 52°06' E 004°16'0 0.0
2015-May-14 13:31N 52°06' E 004°16'0 0.0
2015-May-14 12:25N 52°06' E 004°16'0 0.0
2015-May-14 11:28N 52°06' E 004°16'0 0.0
2015-May-14 10:31N 52°06' E 004°16'0 0.0
2015-May-14 09:25N 52°06' E 004°16'0 0.0
2015-May-14 08:31N 52°06' E 004°16'0 0.0
2015-May-14 07:31N 52°06' E 004°16'0 0.0
2015-May-14 06:31N 52°06' E 004°16'0 0.0
2015-May-14 05:32N 52°06' E 004°16'0 0.0
2015-May-14 04:25N 52°06' E 004°16'0 0.0
2015-May-14 03:31N 52°06' E 004°16'0 0.0
2015-May-14 02:31N 52°06' E 004°16'0 0.0
2015-May-14 01:31N 52°06' E 004°16'0 0.0
2015-May-14 00:31N 52°06' E 004°16'0 0.0
2015-May-13 23:31N 52°06' E 004°16'0 0.0
2015-May-13 22:31N 52°06' E 004°16'0 0.0
2015-May-13 21:28N 52°06' E 004°16'0 0.0
2015-May-13 20:31N 52°06' E 004°16'0 0.0
2015-May-13 19:25N 52°06' E 004°16'0 0.0
2015-May-13 18:25N 52°06' E 004°16'0 0.0
2015-May-13 17:28N 52°06' E 004°16'0 0.0
2015-May-13 16:16N 52°06' E 004°16'0 0.0
2015-May-13 15:22N 52°06' E 004°16'0 0.0
2015-May-13 14:28N 52°06' E 004°16'0 0.0
2015-May-13 13:31N 52°06' E 004°16'0 0.0
2015-May-13 12:25N 52°06' E 004°16'5 5.9
2015-May-13 11:33N 52°04' E 004°08'7 6.7
2015-May-13 10:33N 51°60' E 003°59'1110.7
2015-May-13 09:33N 51°51' E 003°50'1211.9
2015-May-13 08:33N 51°45' E 003°33'1110.3
2015-May-13 07:31N 51°36' E 003°24'7 5.3
2015-May-13 06:15N 51°39' E 003°14'7 2.5
2015-May-13 03:25N 51°46' E 003°17'0 0.0
2015-May-13 02:31N 51°46' E 003°17'0 0.1
2015-May-13 01:26N 51°46' E 003°17'0 0.0
2015-May-13 00:20N 51°46' E 003°17'0 0.0
2015-May-12 22:16N 51°46' E 003°17'0 0.0
2015-May-12 19:22N 51°46' E 003°17'0 0.1
2015-May-12 18:32N 51°46' E 003°17'  
Track history (hours):
 
Tides and Currents Weather Stations Pressure Air Temp Water Temp Dewpoint Dewpoint Depression Visibility Wind Speed Wind Dir Waves Ship Positions

Oceanographic research ship Arca (Netherlands)

Detailed information on ship capabilities available from University of Delaware's Ocean Information Center.

Last reported at 2015-May-22 18:31 UTC. Time now 2015-May-22 19:05 UTC.
Position N 52°06' E 004°16'.

Length 83 m; draft 4.8 m.

Type: Law enforcement. MMSI: 244454000.

Date/timePositionNaut miles runAvg speedWind from/ knotsBaromVisibWave heightAir tempDewpointWater temp
2015-May-22 18:31N 52°06' E 004°16'0 0.0
2015-May-22 17:31N 52°06' E 004°16'0 0.0
2015-May-22 16:28N 52°06' E 004°16'0 0.0
2015-May-22 15:10N 52°06' E 004°16'0 0.0
2015-May-22 14:31N 52°06' E 004°16'0 0.0
2015-May-22 13:31N 52°06' E 004°16'0 0.0
2015-May-22 12:31N 52°06' E 004°16'0 0.0
2015-May-22 11:31N 52°06' E 004°16'0 0.0
2015-May-22 10:31N 52°06' E 004°16'0 0.0
2015-May-22 09:31N 52°06' E 004°16'0 0.0
2015-May-22 08:28N 52°06' E 004°16'0 0.0
2015-May-22 07:22N 52°06' E 004°16'0 0.0
2015-May-22 06:31N 52°06' E 004°16'1 1.4
2015-May-22 05:33N 52°07' E 004°15'3 3.0
2015-May-22 04:33N 52°10' E 004°17'3 2.9
2015-May-22 03:33N 52°13' E 004°18'5 5.3
2015-May-22 02:33N 52°18' E 004°20'8 7.6
2015-May-22 01:33N 52°25' E 004°24'1110.9
2015-May-22 00:33N 52°36' E 004°29'1312.7
2015-May-21 23:33N 52°48' E 004°27'1312.6
2015-May-21 22:33N 53°01' E 004°32'1211.7
2015-May-21 21:33N 53°11' E 004°41'19 9.7
2015-May-21 19:33N 53°29' E 004°33'18 5.7
2015-May-21 16:18N 53°47' E 004°44'6 6.1
2015-May-21 15:17N 53°45' E 004°54'7 9.6
2015-May-21 14:32N 53°52' E 004°58'4 3.1
2015-May-21 13:21N 53°55' E 004°54'3 1.6
2015-May-21 11:33N 53°54' E 004°59'2 1.7
2015-May-21 10:33N 53°54' E 005°02'5 5.2
2015-May-21 09:33N 53°55' E 005°10'4 3.6
2015-May-21 08:33N 53°58' E 005°06'7 6.8
2015-May-21 07:30N 54°01' E 004°55'0 0.0
2015-May-21 06:30N 54°01' E 004°55'0 0.1
2015-May-21 05:33N 54°01' E 004°55'6 5.5
2015-May-21 04:31N 54°06' E 004°51'  
2015-May-18 13:22N 52°41' E 003°54'1012.8
2015-May-18 12:33N 52°31' E 003°54'1010.4
2015-May-18 11:34N 52°21' E 004°00'1211.5
2015-May-18 10:33N 52°13' E 004°14'8 6.7
2015-May-18 09:25N 52°06' E 004°16'0 0.0
2015-May-18 08:31N 52°06' E 004°16'0 0.0
2015-May-18 07:31N 52°06' E 004°16'0 0.0
2015-May-18 06:31N 52°06' E 004°16'0 0.0
2015-May-18 05:25N 52°06' E 004°16'0 0.0
2015-May-18 04:31N 52°06' E 004°16'0 0.0
2015-May-18 03:31N 52°06' E 004°16'0 0.0
2015-May-18 02:28N 52°06' E 004°16'0 0.0
2015-May-18 01:31N 52°06' E 004°16'0 0.0
2015-May-18 00:28N 52°06' E 004°16'0 0.0
2015-May-17 23:31N 52°06' E 004°16'0 0.0
2015-May-17 22:31N 52°06' E 004°16'0 0.0
2015-May-17 21:31N 52°06' E 004°16'0 0.0
2015-May-17 20:31N 52°06' E 004°16'0 0.0
2015-May-17 19:28N 52°06' E 004°16'0 0.0
2015-May-17 18:28N 52°06' E 004°16'0 0.0
2015-May-17 17:28N 52°06' E 004°16'0 0.0
2015-May-17 16:25N 52°06' E 004°16'0 0.0
2015-May-17 15:31N 52°06' E 004°16'0 0.0
2015-May-17 14:28N 52°06' E 004°16'0 0.0
2015-May-17 13:31N 52°06' E 004°16'0 0.0
2015-May-17 12:31N 52°06' E 004°16'0 0.0
2015-May-17 11:28N 52°06' E 004°16'0 0.0
2015-May-17 10:28N 52°06' E 004°16'0 0.0
2015-May-17 09:31N 52°06' E 004°16'0 0.0
2015-May-17 08:19N 52°06' E 004°16'0 0.0
2015-May-17 07:31N 52°06' E 004°16'0 0.0
2015-May-17 06:28N 52°06' E 004°16'0 0.0
2015-May-17 05:31N 52°06' E 004°16'0 0.0
2015-May-17 04:31N 52°06' E 004°16'0 0.0
2015-May-17 03:22N 52°06' E 004°16'0 0.0
2015-May-17 02:31N 52°06' E 004°16'0 0.0
2015-May-17 01:28N 52°06' E 004°16'0 0.0
2015-May-17 00:31N 52°06' E 004°16'0 0.0
2015-May-16 23:28N 52°06' E 004°16'0 0.0
2015-May-16 22:22N 52°06' E 004°16'0 0.0
2015-May-16 21:28N 52°06' E 004°16'0 0.0
2015-May-16 20:31N 52°06' E 004°16'0 0.0
2015-May-16 19:26N 52°06' E 004°16'0 0.0
2015-May-16 18:31N 52°06' E 004°16'0 0.0
2015-May-16 17:27N 52°06' E 004°16'0 0.0
2015-May-16 16:28N 52°06' E 004°16'0 0.0
2015-May-16 15:28N 52°06' E 004°16'0 0.0
2015-May-16 14:31N 52°06' E 004°16'0 0.0
2015-May-16 13:31N 52°06' E 004°16'0 0.0
2015-May-16 12:28N 52°06' E 004°16'0 0.0
2015-May-16 11:31N 52°06' E 004°16'0 0.0
2015-May-16 10:31N 52°06' E 004°16'0 0.0
2015-May-16 09:31N 52°06' E 004°16'0 0.0
2015-May-16 08:25N 52°06' E 004°16'0 0.0
2015-May-16 07:31N 52°06' E 004°16'0 0.0
2015-May-16 06:28N 52°06' E 004°16'0 0.0
2015-May-16 05:31N 52°06' E 004°16'0 0.0
2015-May-16 04:28N 52°06' E 004°16'0 0.0
2015-May-16 03:33N 52°06' E 004°16'0 0.0
2015-May-16 02:31N 52°06' E 004°16'0 0.1
2015-May-16 01:31N 52°06' E 004°16'0 0.1
2015-May-16 00:31N 52°06' E 004°16'0 0.0
2015-May-15 23:28N 52°06' E 004°16'0 0.0
2015-May-15 22:31N 52°06' E 004°16'0 0.0
2015-May-15 21:31N 52°06' E 004°16'0 0.0
2015-May-15 20:31N 52°06' E 004°16'0 0.0
2015-May-15 19:31N 52°06' E 004°16'0 0.0
2015-May-15 18:31N 52°06' E 004°16'0 0.0
2015-May-15 17:25N 52°06' E 004°16'0 0.0
2015-May-15 16:22N 52°06' E 004°16'0 0.0
2015-May-15 15:31N 52°06' E 004°16'0 0.0
2015-May-15 14:27N 52°06' E 004°16'0 0.0
2015-May-15 13:25N 52°06' E 004°16'0 0.0
2015-May-15 12:32N 52°06' E 004°16'0 0.0
2015-May-15 11:31N 52°06' E 004°16'0 0.0
2015-May-15 10:31N 52°06' E 004°16'0 0.0
2015-May-15 09:31N 52°06' E 004°16'0 0.0
2015-May-15 08:10N 52°06' E 004°16'0 0.0
2015-May-15 07:31N 52°06' E 004°16'0 0.0
2015-May-15 06:13N 52°06' E 004°16'0 0.0
2015-May-15 05:31N 52°06' E 004°16'0 0.0
2015-May-15 04:32N 52°06' E 004°16'0 0.0
2015-May-15 02:16N 52°06' E 004°16'0 0.0
2015-May-15 01:31N 52°06' E 004°16'0 0.0
2015-May-15 00:28N 52°06' E 004°16'0 0.0
2015-May-14 23:31N 52°06' E 004°16'0 0.0
2015-May-14 22:31N 52°06' E 004°16'0 0.0
2015-May-14 21:28N 52°06' E 004°16'0 0.0
2015-May-14 20:31N 52°06' E 004°16'0 0.0
2015-May-14 19:31N 52°06' E 004°16'0 0.0
2015-May-14 18:28N 52°06' E 004°16'0 0.0
2015-May-14 17:13N 52°06' E 004°16'0 0.0
2015-May-14 16:25N 52°06' E 004°16'0 0.0
2015-May-14 15:31N 52°06' E 004°16'0 0.0
2015-May-14 14:28N 52°06' E 004°16'0 0.0
2015-May-14 13:31N 52°06' E 004°16'0 0.0
2015-May-14 12:25N 52°06' E 004°16'0 0.0
2015-May-14 11:28N 52°06' E 004°16'0 0.0
2015-May-14 10:31N 52°06' E 004°16'0 0.0
2015-May-14 09:25N 52°06' E 004°16'0 0.0
2015-May-14 08:31N 52°06' E 004°16'0 0.0
2015-May-14 07:31N 52°06' E 004°16'0 0.0
2015-May-14 06:31N 52°06' E 004°16'0 0.0
2015-May-14 05:32N 52°06' E 004°16'0 0.0
2015-May-14 04:25N 52°06' E 004°16'0 0.0
2015-May-14 03:31N 52°06' E 004°16'0 0.0
2015-May-14 02:31N 52°06' E 004°16'0 0.0
2015-May-14 01:31N 52°06' E 004°16'0 0.0
2015-May-14 00:31N 52°06' E 004°16'0 0.0
2015-May-13 23:31N 52°06' E 004°16'0 0.0
2015-May-13 22:31N 52°06' E 004°16'0 0.0
2015-May-13 21:28N 52°06' E 004°16'0 0.0
2015-May-13 20:31N 52°06' E 004°16'0 0.0
2015-May-13 19:25N 52°06' E 004°16'0 0.0
2015-May-13 18:25N 52°06' E 004°16'0 0.0
2015-May-13 17:28N 52°06' E 004°16'0 0.0
2015-May-13 16:16N 52°06' E 004°16'0 0.0
2015-May-13 15:22N 52°06' E 004°16'0 0.0
2015-May-13 14:28N 52°06' E 004°16'0 0.0
2015-May-13 13:31N 52°06' E 004°16'0 0.0
2015-May-13 12:25N 52°06' E 004°16'5 5.9
2015-May-13 11:33N 52°04' E 004°08'7 6.7
2015-May-13 10:33N 51°60' E 003°59'1110.7
2015-May-13 09:33N 51°51' E 003°50'1211.9
2015-May-13 08:33N 51°45' E 003°33'1110.3
2015-May-13 07:31N 51°36' E 003°24'7 5.3
2015-May-13 06:15N 51°39' E 003°14'7 2.5
2015-May-13 03:25N 51°46' E 003°17'0 0.0
2015-May-13 02:31N 51°46' E 003°17'0 0.1
2015-May-13 01:26N 51°46' E 003°17'0 0.0
2015-May-13 00:20N 51°46' E 003°17'0 0.0
2015-May-12 22:16N 51°46' E 003°17'0 0.0
2015-May-12 19:22N 51°46' E 003°17'0 0.1
2015-May-12 18:32N 51°46' E 003°17'  

Dump ship's entire track history